Outage due to equipment failure. Site will not be transmitting information for the foreseeable future.

Latest Weather Observations for Rundle Island

IDQ60801

Issued at 6:05 pm EST Saturday 1 November 2014 (issued every 30 minutes, with the page automatically refreshed every 10 minutes)

About weather observations | Map of weather stations | Latest weather observations for QLD | Other Formats
Station Details ID: 039322 Name: RUNDLE ISLAND Lat: -23.53 Lon: 151.28 Height: 19.8 m
Data from the previous 72 hours. | See also: Recent months at Rundle Island
Date/Time
EST
Temp
°C
App
Temp
°C
Dew
Point
Rel
Hum
%
Delta-T
°C
Wind Press
QNH
hPa
Press
MSL
hPa
Rain
since 9 am
mm
Dir
 
Spd
km/h
Gust
km/h
Spd
kts
Gust
kts
01/06:00pm 24.1 - - - - N 28 33 15 18 1012.6 1012.4 -
01/05:30pm 24.2 - - - - N 30 33 16 18 1012.1 1011.9 -
01/05:00pm 24.1 - - - - N 30 35 16 19 1011.7 1011.5 -
01/04:30pm 24.6 - - - - NNE 28 33 15 18 1011.8 1011.6 -
01/04:00pm 24.4 - - - - N 24 28 13 15 1012.0 1011.8 -
01/03:30pm 24.4 - - - - N 26 30 14 16 1012.1 1011.9 -
01/03:00pm 24.4 - - - - N 24 28 13 15 1012.5 1012.3 -
01/02:30pm 24.7 - - - - N 22 26 12 14 1012.7 1012.5 -
01/02:00pm 24.6 - - - - N 20 22 11 12 1013.3 1013.1 -
01/01:30pm 24.3 - - - - N 17 20 9 11 1013.9 1013.8 -
01/01:00pm 24.2 - - - - N 17 22 9 12 1014.5 1014.4 -
01/12:30pm 24.5 - - - - N 19 22 10 12 1015.1 1015.0 -
01/12:00pm 24.3 - - - - N 17 19 9 10 1015.5 1015.4 -
01/11:30am 24.4 - - - - N 17 19 9 10 1015.9 1015.8 -
01/11:00am 24.2 - - - - N 13 17 7 9 1016.1 1016.0 -
01/10:30am 24.3 - - - - N 11 15 6 8 1016.4 1016.3 -
01/10:00am 24.1 - - - - N 13 15 7 8 1016.7 1016.6 -
01/09:30am 23.8 - - - - N 15 17 8 9 1016.9 1016.8 -
01/09:00am 23.8 - - - - N 17 20 9 11 1016.9 1016.8 -
01/08:30am 23.6 - - - - N 20 26 11 14 1016.8 1016.7 -
01/08:00am 23.7 - - - - N 22 26 12 14 1016.6 1016.5 -
01/07:30am 23.5 - - - - N 22 26 12 14 1016.2 1016.1 -
01/07:00am 23.4 - - - - NNE 22 26 12 14 1015.7 1015.6 -
01/06:30am 23.3 - - - - NNE 22 24 12 13 1015.3 1015.2 -
01/06:00am 23.3 - - - - NNE 24 28 13 15 1015.0 1014.9 -
01/05:30am 23.3 - - - - NNE 20 24 11 13 1014.9 1014.8 -
01/05:00am 23.1 - - - - NNE 19 22 10 12 1014.7 1014.6 -
01/04:30am 23.0 - - - - NNE 19 20 10 11 1014.4 1014.3 -
01/04:00am 23.2 - - - - NNE 20 24 11 13 1014.0 1013.9 -
01/03:30am 23.1 - - - - NNE 22 24 12 13 1013.9 1013.8 -
01/03:00am 23.2 - - - - NNE 19 24 10 13 1014.3 1014.2 -
01/02:30am 23.2 - - - - N 15 19 8 10 1014.5 1014.4 -
01/02:00am 23.2 - - - - NNE 19 22 10 12 1014.5 1014.4 -
01/01:30am 23.3 - - - - NNE 20 26 11 14 1014.4 1014.3 -
01/01:00am 23.2 - - - - NNE 22 26 12 14 1014.5 1014.4 -
01/12:30am 23.3 - - - - NNE 20 24 11 13 1015.1 1015.0 -
01/12:00am 23.4 - - - - NNE 22 28 12 15 1015.4 1015.3 -
 
Date/Time
EST
Temp
°C
App
Temp
°C
Dew
Point
Rel
Hum
%
Delta-T
°C
Wind Press
QNH
hPa
Press
MSL
hPa
Rain
since 9 am
mm
Dir
 
Spd
km/h
Gust
km/h
Spd
kts
Gust
kts
31/11:30pm 23.5 - - - - NNE 20 26 11 14 1015.6 1015.5 -
31/11:00pm 23.7 - - - - NNE 19 20 10 11 1015.9 1015.8 -
31/10:30pm 23.5 - - - - NNE 20 24 11 13 1016.1 1016.0 -
31/10:00pm 23.7 - - - - NNE 15 22 8 12 1016.0 1015.9 -
31/09:30pm 23.7 - - - - NE 11 13 6 7 1016.1 1016.0 -
31/09:00pm 23.7 - - - - NNE 13 15 7 8 1015.9 1015.8 -
31/08:30pm 23.6 - - - - NNE 13 15 7 8 1015.8 1015.7 -
31/08:00pm 23.7 - - - - NNE 15 19 8 10 1015.6 1015.5 -
31/07:30pm 23.6 - - - - NE 17 20 9 11 1015.2 1015.1 -
31/07:00pm 23.6 - - - - NNE 17 20 9 11 1014.9 1014.8 -
31/06:30pm 23.7 - - - - NE 19 24 10 13 1014.6 1014.5 -
31/06:00pm 23.8 - - - - NE 17 20 9 11 1014.6 1014.5 -
31/05:30pm 23.9 - - - - NE 15 19 8 10 1014.2 1014.1 -
31/05:00pm 24.3 - - - - NE 13 17 7 9 1014.4 1014.3 -
31/04:30pm 24.9 - - - - NNE 15 19 8 10 1014.3 1014.2 -
31/04:00pm 24.8 - - - - NE 15 19 8 10 1014.1 1014.0 -
31/03:30pm 24.5 - - - - NE 17 20 9 11 1014.1 1014.0 -
31/03:00pm 25.1 - - - - NE 15 19 8 10 1014.1 1014.0 -
31/02:30pm 25.3 - - - - NE 13 17 7 9 1014.2 1014.1 -
31/02:00pm 25.4 - - - - NNE 13 17 7 9 1014.6 1014.5 -
31/01:30pm 25.0 - - - - NNE 15 19 8 10 1014.8 1014.7 -
31/01:00pm 25.7 - - - - NE 11 17 6 9 1015.3 1015.2 -
31/12:30pm 25.8 - - - - NE 13 15 7 8 1015.7 1015.6 -
31/12:00pm 25.8 - - - - NE 13 17 7 9 1015.9 1015.8 -
31/11:30am 25.3 - - - - NE 11 15 6 8 1016.1 1016.0 -
31/11:00am 25.5 - - - - NE 13 15 7 8 1016.4 1016.3 -
31/10:30am 25.1 - - - - NE 11 13 6 7 1016.6 1016.5 -
31/10:00am 25.4 - - - - NE 9 13 5 7 1016.9 1016.8 -
31/09:30am 25.2 - - - - NE 9 11 5 6 1017.0 1016.9 -
31/09:00am 24.1 - - - - NNE 13 17 7 9 1016.9 1016.8 -
31/08:30am 24.3 - - - - NNE 11 13 6 7 1016.9 1016.8 -
31/08:00am 23.8 - - - - NNE 13 15 7 8 1016.7 1016.6 -
31/07:30am 23.7 - - - - NNE 13 17 7 9 1016.7 1016.6 -
31/07:00am 23.3 - - - - NNE 11 13 6 7 1016.5 1016.4 -
31/06:30am 23.2 - - - - N 13 17 7 9 1016.0 1015.9 -
31/06:00am 23.2 - - - - NNE 9 11 5 6 1015.9 1015.8 -
31/05:30am 23.0 - - - - NNE 11 13 6 7 1015.5 1015.4 -
31/05:00am 22.9 - - - - NNE 13 15 7 8 1015.1 1015.0 -
31/04:30am 23.0 - - - - NE 13 17 7 9 1014.8 1014.7 -
31/04:00am 23.0 - - - - NNE 15 19 8 10 1014.5 1014.4 -
31/03:30am 23.1 - - - - NNE 17 19 9 10 1014.5 1014.4 -
31/03:00am 23.1 - - - - NNE 19 20 10 11 1014.3 1014.2 -
31/02:30am 23.2 - - - - NNE 17 19 9 10 1014.5 1014.4 -
31/02:00am 23.2 - - - - N 17 20 9 11 1014.6 1014.5 -
31/01:30am 23.4 - - - - N 17 19 9 10 1014.9 1014.8 -
31/01:00am 23.4 - - - - NNE 17 19 9 10 1014.5 1014.4 -
31/12:30am 23.3 - - - - NNE 13 17 7 9 1015.3 1015.2 -
31/12:00am 23.4 - - - - NNE 15 17 8 9 1015.6 1015.5 -
 
Date/Time
EST
Temp
°C
App
Temp
°C
Dew
Point
Rel
Hum
%
Delta-T
°C
Wind Press
QNH
hPa
Press
MSL
hPa
Rain
since 9 am
mm
Dir
 
Spd
km/h
Gust
km/h
Spd
kts
Gust
kts
30/11:30pm 23.5 - - - - NNE 17 20 9 11 1015.6 1015.5 -
30/11:00pm 23.4 - - - - NE 19 22 10 12 1015.5 1015.4 -
30/10:30pm 23.4 - - - - NE 19 20 10 11 1015.9 1015.8 -
30/10:00pm 23.5 - - - - NE 22 24 12 13 1015.3 1015.2 -
30/09:30pm 23.6 - - - - NNE 22 26 12 14 1015.0 1014.9 -
30/09:00pm 23.6 - - - - NE 20 24 11 13 1015.4 1015.3 -
30/08:30pm 23.6 - - - - NE 17 20 9 11 1015.5 1015.4 -
30/08:00pm 23.6 - - - - NE 15 17 8 9 1015.6 1015.5 -
30/07:30pm 23.7 - - - - NNE 19 22 10 12 1014.8 1014.7 -
30/07:00pm 23.7 - - - - NNE 19 20 10 11 1014.7 1014.6 -
30/06:30pm 23.8 - - - - NNE 19 20 10 11 1014.1 1014.0 -
30/06:00pm 23.9 - - - - NE 20 24 11 13 1013.7 1013.6 -
30/05:30pm 23.9 - - - - NE 17 19 9 10 1013.6 1013.5 -
30/05:00pm 24.1 - - - - NE 17 20 9 11 1013.5 1013.4 -
30/04:30pm 24.2 - - - - NE 19 22 10 12 1013.1 1013.0 -
30/04:00pm 24.4 - - - - NE 20 22 11 12 1013.1 1013.0 -
30/03:30pm 24.0 - - - - NE 20 22 11 12 1013.1 1013.0 -
30/03:00pm 24.1 - - - - NE 22 26 12 14 1013.1 1013.0 -
30/02:30pm 24.3 - - - - NE 24 28 13 15 1013.3 1013.2 -
30/02:00pm 24.6 - - - - NE 24 28 13 15 1013.6 1013.5 -
30/01:30pm 24.7 - - - - ENE 24 28 13 15 1013.9 1013.8 -
30/01:00pm 24.6 - - - - ENE 22 26 12 14 1014.3 1014.2 -
30/12:30pm 24.9 - - - - E 20 24 11 13 1014.7 1014.6 -
30/12:00pm 25.1 - - - - E 20 22 11 12 1015.2 1015.1 -
30/11:30am 25.1 - - - - E 19 20 10 11 1015.6 1015.5 -
30/11:00am 24.7 - - - - E 19 20 10 11 1015.9 1015.8 -
30/10:30am 24.7 - - - - ENE 19 22 10 12 1016.1 1016.0 -
30/10:00am 24.8 - - - - ENE 15 17 8 9 1016.6 1016.5 -
30/09:30am 25.0 - - - - ENE 15 19 8 10 1016.8 1016.7 -
30/09:00am 25.5 - - - - ENE 9 11 5 6 1017.0 1016.9 -
30/08:30am 25.1 - - - - ENE 7 11 4 6 1017.3 1017.2 -
30/08:00am 24.5 - - - - ENE 6 9 3 5 1017.2 1017.1 -
30/07:30am 24.1 - - - - NE 7 9 4 5 1017.2 1017.1 -
30/07:00am 23.3 - - - - NNE 9 11 5 6 1016.8 1016.7 -
30/06:30am 23.6 - - - - NE 7 9 4 5 1016.6 1016.5 -
30/06:00am 22.9 - - - - NE 11 13 6 7 1016.2 1016.1 -
30/05:30am 22.8 - - - - NE 13 15 7 8 1015.6 1015.5 -
30/05:00am 22.8 - - - - NE 11 13 6 7 1015.5 1015.4 -
30/04:30am 22.8 - - - - ENE 11 13 6 7 1015.0 1014.9 -
30/04:00am 22.6 - - - - ENE 11 13 6 7 1014.6 1014.5 -
30/03:30am 22.8 - - - - ENE 13 13 7 7 1014.2 1014.1 -
30/03:00am 22.9 - - - - E 13 15 7 8 1014.1 1014.0 -
30/02:30am 22.9 - - - - ENE 15 17 8 9 1013.9 1013.8 -
30/02:00am 22.9 - - - - E 15 17 8 9 1013.9 1013.8 -
30/01:30am 23.0 - - - - E 13 15 7 8 1014.2 1014.1 -
30/01:00am 23.1 - - - - ENE 17 19 9 10 1014.3 1014.2 -
30/12:30am 23.2 - - - - ENE 17 19 9 10 1014.5 1014.4 -
30/12:00am 23.3 - - - - E 17 19 9 10 1014.6 1014.5 -
 
Date/Time
EST
Temp
°C
App
Temp
°C
Dew
Point
Rel
Hum
%
Delta-T
°C
Wind Press
QNH
hPa
Press
MSL
hPa
Rain
since 9 am
mm
Dir
 
Spd
km/h
Gust
km/h
Spd
kts
Gust
kts
29/11:30pm 23.4 - - - - ENE 15 17 8 9 1014.8 1014.7 -
29/11:00pm 23.5 - - - - ENE 17 19 9 10 1015.0 1014.9 -
29/10:30pm 23.5 - - - - ENE 13 17 7 9 1015.0 1014.9 -
29/10:00pm 23.5 - - - - ENE 9 15 5 8 1015.1 1015.0 -
29/09:30pm 23.6 - - - - NNE 9 11 5 6 1014.9 1014.8 -
29/09:00pm 23.5 - - - - N 11 15 6 8 1014.6 1014.5 -
29/08:30pm 23.5 - - - - N 17 20 9 11 1014.2 1014.1 -
29/08:00pm 23.7 - - - - N 20 24 11 13 1013.7 1013.6 -
29/07:30pm 23.7 - - - - N 24 28 13 15 1013.2 1013.1 -
29/07:00pm 23.7 - - - - N 26 30 14 16 1012.7 1012.6 -
29/06:30pm 23.8 - - - - N 26 30 14 16 1012.5 1012.4 -

Other Formats:

Comma delimited format used in spreadsheet applications
http://www.bom.gov.au/fwo/IDQ60801/IDQ60801.94378.axf

JavaScript Object Notation format (JSON) in row-major order
http://www.bom.gov.au/fwo/IDQ60801/IDQ60801.94378.json